sensor_id;sensor_type;location;lat;lon;timestamp;P1;durP1;ratioP1;P2;durP2;ratioP2
39740;SDS011;25426;53.478;10.190;2023-06-01T00:01:43;18.07;;;14.77;;
39740;SDS011;25426;53.478;10.190;2023-06-01T00:04:14;18.52;;;15.55;;
39740;SDS011;25426;53.478;10.190;2023-06-01T00:06:45;20.20;;;15.80;;
39740;SDS011;25426;53.478;10.190;2023-06-01T00:09:16;17.42;;;14.80;;
39740;SDS011;25426;53.478;10.190;2023-06-01T00:11:49;17.85;;;14.02;;
39740;SDS011;25426;53.478;10.190;2023-06-01T00:14:20;18.00;;;13.47;;
39740;SDS011;25426;53.478;10.190;2023-06-01T00:16:51;18.60;;;15.13;;
39740;SDS011;25426;53.478;10.190;2023-06-01T00:19:22;20.95;;;14.90;;
39740;SDS011;25426;53.478;10.190;2023-06-01T00:21:55;22.07;;;15.93;;
39740;SDS011;25426;53.478;10.190;2023-06-01T00:24:27;19.05;;;14.93;;
39740;SDS011;25426;53.478;10.190;2023-06-01T00:26:59;20.85;;;15.13;;
39740;SDS011;25426;53.478;10.190;2023-06-01T00:29:31;20.42;;;14.63;;
39740;SDS011;25426;53.478;10.190;2023-06-01T00:32:02;18.38;;;14.27;;
39740;SDS011;25426;53.478;10.190;2023-06-01T00:34:33;17.65;;;13.35;;
39740;SDS011;25426;53.478;10.190;2023-06-01T00:37:04;15.68;;;12.57;;
39740;SDS011;25426;53.478;10.190;2023-06-01T00:39:35;18.95;;;13.45;;
39740;SDS011;25426;53.478;10.190;2023-06-01T00:42:08;14.80;;;12.07;;
39740;SDS011;25426;53.478;10.190;2023-06-01T00:44:39;20.25;;;13.02;;
39740;SDS011;25426;53.478;10.190;2023-06-01T00:47:10;17.00;;;12.45;;
39740;SDS011;25426;53.478;10.190;2023-06-01T00:49:41;17.33;;;11.48;;
39740;SDS011;25426;53.478;10.190;2023-06-01T00:52:13;16.83;;;11.45;;
39740;SDS011;25426;53.478;10.190;2023-06-01T00:54:44;16.92;;;10.63;;
39740;SDS011;25426;53.478;10.190;2023-06-01T00:57:15;14.93;;;10.43;;
39740;SDS011;25426;53.478;10.190;2023-06-01T00:59:46;16.67;;;10.88;;
39740;SDS011;25426;53.478;10.190;2023-06-01T01:02:17;15.85;;;10.48;;
39740;SDS011;25426;53.478;10.190;2023-06-01T01:04:48;14.15;;;10.20;;
39740;SDS011;25426;53.478;10.190;2023-06-01T01:07:25;16.37;;;11.00;;
39740;SDS011;25426;53.478;10.190;2023-06-01T01:13:27;16.08;;;10.85;;
39740;SDS011;25426;53.478;10.190;2023-06-01T01:16:11;14.65;;;10.38;;
39740;SDS011;25426;53.478;10.190;2023-06-01T01:18:49;13.98;;;9.90;;
39740;SDS011;25426;53.478;10.190;2023-06-01T01:21:31;16.08;;;9.65;;
39740;SDS011;25426;53.478;10.190;2023-06-01T01:24:21;15.03;;;10.57;;
39740;SDS011;25426;53.478;10.190;2023-06-01T01:27:37;14.30;;;9.75;;
39740;SDS011;25426;53.478;10.190;2023-06-01T01:30:47;17.80;;;9.73;;
39740;SDS011;25426;53.478;10.190;2023-06-01T01:33:19;13.93;;;9.43;;
39740;SDS011;25426;53.478;10.190;2023-06-01T01:35:52;11.43;;;8.95;;
39740;SDS011;25426;53.478;10.190;2023-06-01T01:38:23;16.27;;;8.88;;
39740;SDS011;25426;53.478;10.190;2023-06-01T01:40:54;12.60;;;8.98;;
39740;SDS011;25426;53.478;10.190;2023-06-01T01:43:26;11.57;;;8.43;;
39740;SDS011;25426;53.478;10.190;2023-06-01T01:46:00;12.05;;;8.02;;
39740;SDS011;25426;53.478;10.190;2023-06-01T01:49:01;14.27;;;7.37;;
39740;SDS011;25426;53.478;10.190;2023-06-01T01:52:05;11.35;;;6.85;;
39740;SDS011;25426;53.478;10.190;2023-06-01T01:55:13;10.30;;;7.30;;
39740;SDS011;25426;53.478;10.190;2023-06-01T01:57:46;15.50;;;7.97;;
39740;SDS011;25426;53.478;10.190;2023-06-01T02:00:17;11.95;;;7.50;;
39740;SDS011;25426;53.478;10.190;2023-06-01T02:02:48;14.13;;;7.60;;
39740;SDS011;25426;53.478;10.190;2023-06-01T02:05:20;12.75;;;7.38;;
39740;SDS011;25426;53.478;10.190;2023-06-01T02:07:51;15.88;;;8.10;;
39740;SDS011;25426;53.478;10.190;2023-06-01T02:10:22;16.00;;;7.80;;
39740;SDS011;25426;53.478;10.190;2023-06-01T02:12:53;13.80;;;7.72;;
39740;SDS011;25426;53.478;10.190;2023-06-01T02:15:24;11.43;;;7.32;;
39740;SDS011;25426;53.478;10.190;2023-06-01T02:17:55;15.50;;;8.68;;
39740;SDS011;25426;53.478;10.190;2023-06-01T02:20:26;11.95;;;8.43;;
39740;SDS011;25426;53.478;10.190;2023-06-01T02:22:58;13.75;;;8.20;;
39740;SDS011;25426;53.478;10.190;2023-06-01T02:25:28;15.57;;;9.00;;
39740;SDS011;25426;53.478;10.190;2023-06-01T02:27:59;15.52;;;9.50;;
39740;SDS011;25426;53.478;10.190;2023-06-01T02:30:31;16.98;;;8.73;;
39740;SDS011;25426;53.478;10.190;2023-06-01T02:33:02;17.88;;;8.38;;
39740;SDS011;25426;53.478;10.190;2023-06-01T02:35:33;16.47;;;8.13;;
39740;SDS011;25426;53.478;10.190;2023-06-01T02:38:04;12.27;;;7.60;;
39740;SDS011;25426;53.478;10.190;2023-06-01T02:40:39;13.90;;;7.38;;
39740;SDS011;25426;53.478;10.190;2023-06-01T02:43:10;14.27;;;7.20;;
39740;SDS011;25426;53.478;10.190;2023-06-01T02:45:40;13.00;;;7.35;;
39740;SDS011;25426;53.478;10.190;2023-06-01T02:48:11;12.27;;;7.97;;
39740;SDS011;25426;53.478;10.190;2023-06-01T02:50:43;16.83;;;7.93;;
39740;SDS011;25426;53.478;10.190;2023-06-01T02:53:15;17.50;;;7.80;;
39740;SDS011;25426;53.478;10.190;2023-06-01T02:55:46;11.32;;;6.88;;
39740;SDS011;25426;53.478;10.190;2023-06-01T02:58:36;12.82;;;7.57;;
39740;SDS011;25426;53.478;10.190;2023-06-01T03:01:14;16.70;;;7.93;;
39740;SDS011;25426;53.478;10.190;2023-06-01T03:03:45;15.80;;;7.30;;
39740;SDS011;25426;53.478;10.190;2023-06-01T03:06:19;14.43;;;7.07;;
39740;SDS011;25426;53.478;10.190;2023-06-01T03:09:27;11.82;;;7.00;;
39740;SDS011;25426;53.478;10.190;2023-06-01T03:12:02;15.55;;;7.72;;
39740;SDS011;25426;53.478;10.190;2023-06-01T03:14:35;14.73;;;7.70;;
39740;SDS011;25426;53.478;10.190;2023-06-01T03:17:06;13.50;;;7.80;;
39740;SDS011;25426;53.478;10.190;2023-06-01T03:19:37;16.42;;;7.70;;
39740;SDS011;25426;53.478;10.190;2023-06-01T03:22:17;15.18;;;7.78;;
39740;SDS011;25426;53.478;10.190;2023-06-01T03:24:57;15.13;;;7.85;;
39740;SDS011;25426;53.478;10.190;2023-06-01T03:27:33;11.88;;;6.90;;
39740;SDS011;25426;53.478;10.190;2023-06-01T03:30:05;14.00;;;7.35;;
39740;SDS011;25426;53.478;10.190;2023-06-01T03:32:41;12.90;;;7.93;;
39740;SDS011;25426;53.478;10.190;2023-06-01T03:35:14;18.08;;;7.50;;
39740;SDS011;25426;53.478;10.190;2023-06-01T03:37:47;15.57;;;7.18;;
39740;SDS011;25426;53.478;10.190;2023-06-01T03:40:23;14.98;;;7.22;;
39740;SDS011;25426;53.478;10.190;2023-06-01T03:42:55;9.40;;;6.50;;
39740;SDS011;25426;53.478;10.190;2023-06-01T03:45:28;13.13;;;6.63;;
39740;SDS011;25426;53.478;10.190;2023-06-01T03:48:00;15.35;;;6.47;;
39740;SDS011;25426;53.478;10.190;2023-06-01T03:50:35;13.48;;;6.70;;
39740;SDS011;25426;53.478;10.190;2023-06-01T03:53:11;13.85;;;6.90;;
39740;SDS011;25426;53.478;10.190;2023-06-01T03:55:42;11.43;;;6.60;;
39740;SDS011;25426;53.478;10.190;2023-06-01T03:58:24;16.85;;;6.80;;
39740;SDS011;25426;53.478;10.190;2023-06-01T04:00:55;13.85;;;6.30;;
39740;SDS011;25426;53.478;10.190;2023-06-01T04:03:27;15.93;;;6.75;;
39740;SDS011;25426;53.478;10.190;2023-06-01T04:06:00;13.98;;;6.63;;
39740;SDS011;25426;53.478;10.190;2023-06-01T04:08:34;15.27;;;6.95;;
39740;SDS011;25426;53.478;10.190;2023-06-01T04:11:07;15.80;;;7.45;;
39740;SDS011;25426;53.478;10.190;2023-06-01T04:13:38;14.85;;;6.78;;
39740;SDS011;25426;53.478;10.190;2023-06-01T04:16:20;14.50;;;7.20;;
39740;SDS011;25426;53.478;10.190;2023-06-01T04:18:51;16.05;;;7.10;;
39740;SDS011;25426;53.478;10.190;2023-06-01T04:21:25;14.35;;;6.78;;
39740;SDS011;25426;53.478;10.190;2023-06-01T04:23:59;14.15;;;7.05;;
39740;SDS011;25426;53.478;10.190;2023-06-01T04:26:33;15.98;;;7.95;;
39740;SDS011;25426;53.478;10.190;2023-06-01T04:29:06;16.00;;;7.47;;
39740;SDS011;25426;53.478;10.190;2023-06-01T04:31:42;16.15;;;6.80;;
39740;SDS011;25426;53.478;10.190;2023-06-01T04:34:13;14.40;;;6.63;;
39740;SDS011;25426;53.478;10.190;2023-06-01T04:36:44;14.90;;;7.25;;
39740;SDS011;25426;53.478;10.190;2023-06-01T04:39:16;15.98;;;7.20;;
39740;SDS011;25426;53.478;10.190;2023-06-01T04:41:51;14.70;;;7.88;;
39740;SDS011;25426;53.478;10.190;2023-06-01T04:44:23;14.52;;;7.82;;
39740;SDS011;25426;53.478;10.190;2023-06-01T04:46:55;15.55;;;7.70;;
39740;SDS011;25426;53.478;10.190;2023-06-01T04:49:27;14.02;;;7.93;;
39740;SDS011;25426;53.478;10.190;2023-06-01T04:51:58;14.90;;;8.17;;
39740;SDS011;25426;53.478;10.190;2023-06-01T04:54:30;14.70;;;8.35;;
39740;SDS011;25426;53.478;10.190;2023-06-01T04:57:01;19.02;;;7.47;;
39740;SDS011;25426;53.478;10.190;2023-06-01T04:59:32;14.57;;;7.23;;
39740;SDS011;25426;53.478;10.190;2023-06-01T05:02:03;15.37;;;7.57;;
39740;SDS011;25426;53.478;10.190;2023-06-01T05:04:34;14.33;;;7.30;;
39740;SDS011;25426;53.478;10.190;2023-06-01T05:07:05;14.55;;;7.65;;
39740;SDS011;25426;53.478;10.190;2023-06-01T05:09:37;16.43;;;8.00;;
39740;SDS011;25426;53.478;10.190;2023-06-01T05:12:08;16.75;;;8.32;;
39740;SDS011;25426;53.478;10.190;2023-06-01T05:14:39;14.80;;;8.73;;
39740;SDS011;25426;53.478;10.190;2023-06-01T05:17:10;15.90;;;8.05;;
39740;SDS011;25426;53.478;10.190;2023-06-01T05:19:41;15.60;;;7.88;;
39740;SDS011;25426;53.478;10.190;2023-06-01T05:22:12;15.82;;;7.75;;
39740;SDS011;25426;53.478;10.190;2023-06-01T05:24:44;17.08;;;7.82;;
39740;SDS011;25426;53.478;10.190;2023-06-01T05:27:16;14.85;;;7.63;;
39740;SDS011;25426;53.478;10.190;2023-06-01T05:29:47;16.13;;;7.27;;
39740;SDS011;25426;53.478;10.190;2023-06-01T05:32:18;11.77;;;7.37;;
39740;SDS011;25426;53.478;10.190;2023-06-01T05:34:49;13.63;;;7.00;;
39740;SDS011;25426;53.478;10.190;2023-06-01T05:37:21;15.00;;;7.90;;
39740;SDS011;25426;53.478;10.190;2023-06-01T05:39:52;15.63;;;6.93;;
39740;SDS011;25426;53.478;10.190;2023-06-01T05:42:24;15.48;;;7.47;;
39740;SDS011;25426;53.478;10.190;2023-06-01T05:44:54;14.40;;;7.50;;
39740;SDS011;25426;53.478;10.190;2023-06-01T05:47:25;14.75;;;7.82;;
39740;SDS011;25426;53.478;10.190;2023-06-01T05:49:56;18.65;;;7.90;;
39740;SDS011;25426;53.478;10.190;2023-06-01T05:52:28;15.65;;;7.72;;
39740;SDS011;25426;53.478;10.190;2023-06-01T05:54:59;14.05;;;7.82;;
39740;SDS011;25426;53.478;10.190;2023-06-01T05:57:30;13.40;;;7.28;;
39740;SDS011;25426;53.478;10.190;2023-06-01T06:00:01;16.47;;;7.47;;
39740;SDS011;25426;53.478;10.190;2023-06-01T06:02:46;14.50;;;7.85;;
39740;SDS011;25426;53.478;10.190;2023-06-01T06:05:17;13.80;;;7.80;;
39740;SDS011;25426;53.478;10.190;2023-06-01T06:07:48;16.33;;;8.00;;
39740;SDS011;25426;53.478;10.190;2023-06-01T06:10:18;17.48;;;7.75;;
39740;SDS011;25426;53.478;10.190;2023-06-01T06:12:49;15.13;;;7.60;;
39740;SDS011;25426;53.478;10.190;2023-06-01T06:15:20;14.23;;;7.95;;
39740;SDS011;25426;53.478;10.190;2023-06-01T06:17:51;15.82;;;7.50;;
39740;SDS011;25426;53.478;10.190;2023-06-01T06:20:22;13.57;;;7.38;;
39740;SDS011;25426;53.478;10.190;2023-06-01T06:22:53;11.83;;;7.20;;
39740;SDS011;25426;53.478;10.190;2023-06-01T06:25:24;14.40;;;7.10;;
39740;SDS011;25426;53.478;10.190;2023-06-01T06:27:55;13.27;;;6.10;;
39740;SDS011;25426;53.478;10.190;2023-06-01T06:30:27;13.82;;;6.28;;
39740;SDS011;25426;53.478;10.190;2023-06-01T06:32:58;17.95;;;6.85;;
39740;SDS011;25426;53.478;10.190;2023-06-01T06:35:29;17.13;;;5.87;;
39740;SDS011;25426;53.478;10.190;2023-06-01T06:38:00;9.82;;;5.53;;
39740;SDS011;25426;53.478;10.190;2023-06-01T06:40:31;15.18;;;6.30;;
39740;SDS011;25426;53.478;10.190;2023-06-01T06:43:01;13.95;;;5.45;;
39740;SDS011;25426;53.478;10.190;2023-06-01T06:45:32;12.45;;;6.03;;
39740;SDS011;25426;53.478;10.190;2023-06-01T06:48:03;12.32;;;5.38;;
39740;SDS011;25426;53.478;10.190;2023-06-01T06:50:35;12.55;;;5.90;;
39740;SDS011;25426;53.478;10.190;2023-06-01T06:53:07;13.77;;;6.07;;
39740;SDS011;25426;53.478;10.190;2023-06-01T06:55:37;13.55;;;5.63;;
39740;SDS011;25426;53.478;10.190;2023-06-01T06:58:08;14.30;;;5.77;;
39740;SDS011;25426;53.478;10.190;2023-06-01T07:00:40;15.45;;;5.90;;
39740;SDS011;25426;53.478;10.190;2023-06-01T07:03:11;15.10;;;5.85;;
39740;SDS011;25426;53.478;10.190;2023-06-01T07:05:42;14.07;;;5.93;;
39740;SDS011;25426;53.478;10.190;2023-06-01T07:08:15;14.65;;;5.75;;
39740;SDS011;25426;53.478;10.190;2023-06-01T07:10:46;12.55;;;4.90;;
39740;SDS011;25426;53.478;10.190;2023-06-01T07:13:17;11.02;;;5.55;;
39740;SDS011;25426;53.478;10.190;2023-06-01T07:15:48;13.32;;;5.78;;
39740;SDS011;25426;53.478;10.190;2023-06-01T07:18:19;10.27;;;5.40;;
39740;SDS011;25426;53.478;10.190;2023-06-01T07:20:50;13.45;;;5.93;;
39740;SDS011;25426;53.478;10.190;2023-06-01T07:23:21;14.45;;;6.03;;
39740;SDS011;25426;53.478;10.190;2023-06-01T07:25:52;11.80;;;5.30;;
39740;SDS011;25426;53.478;10.190;2023-06-01T07:28:22;13.07;;;5.95;;
39740;SDS011;25426;53.478;10.190;2023-06-01T07:30:56;15.77;;;5.90;;
39740;SDS011;25426;53.478;10.190;2023-06-01T07:33:27;11.07;;;5.50;;
39740;SDS011;25426;53.478;10.190;2023-06-01T07:35:58;12.60;;;5.20;;
39740;SDS011;25426;53.478;10.190;2023-06-01T07:38:29;11.63;;;5.88;;
39740;SDS011;25426;53.478;10.190;2023-06-01T07:41:01;11.82;;;5.45;;
39740;SDS011;25426;53.478;10.190;2023-06-01T07:43:35;16.35;;;6.25;;
39740;SDS011;25426;53.478;10.190;2023-06-01T07:46:08;11.48;;;5.85;;
39740;SDS011;25426;53.478;10.190;2023-06-01T07:48:39;13.10;;;5.50;;
39740;SDS011;25426;53.478;10.190;2023-06-01T07:51:10;13.17;;;5.60;;
39740;SDS011;25426;53.478;10.190;2023-06-01T07:53:41;11.83;;;5.50;;
39740;SDS011;25426;53.478;10.190;2023-06-01T07:56:13;11.07;;;5.22;;
39740;SDS011;25426;53.478;10.190;2023-06-01T07:58:44;12.80;;;5.50;;
39740;SDS011;25426;53.478;10.190;2023-06-01T08:01:15;12.48;;;5.20;;
39740;SDS011;25426;53.478;10.190;2023-06-01T08:03:48;12.27;;;5.53;;
39740;SDS011;25426;53.478;10.190;2023-06-01T08:06:20;13.68;;;5.35;;
39740;SDS011;25426;53.478;10.190;2023-06-01T08:08:52;11.30;;;5.03;;
39740;SDS011;25426;53.478;10.190;2023-06-01T08:11:23;12.30;;;4.95;;
39740;SDS011;25426;53.478;10.190;2023-06-01T08:13:54;14.77;;;5.53;;
39740;SDS011;25426;53.478;10.190;2023-06-01T08:16:26;11.18;;;4.75;;
39740;SDS011;25426;53.478;10.190;2023-06-01T08:18:57;12.98;;;4.85;;
39740;SDS011;25426;53.478;10.190;2023-06-01T08:21:28;14.77;;;5.15;;
39740;SDS011;25426;53.478;10.190;2023-06-01T08:23:59;11.48;;;4.63;;
39740;SDS011;25426;53.478;10.190;2023-06-01T08:26:31;10.00;;;4.55;;
39740;SDS011;25426;53.478;10.190;2023-06-01T08:29:02;10.10;;;4.27;;
39740;SDS011;25426;53.478;10.190;2023-06-01T08:31:33;9.75;;;4.38;;
39740;SDS011;25426;53.478;10.190;2023-06-01T08:34:04;10.57;;;4.03;;
39740;SDS011;25426;53.478;10.190;2023-06-01T08:36:35;12.15;;;3.95;;
39740;SDS011;25426;53.478;10.190;2023-06-01T08:39:22;10.85;;;4.20;;
39740;SDS011;25426;53.478;10.190;2023-06-01T08:42:08;14.33;;;4.57;;
39740;SDS011;25426;53.478;10.190;2023-06-01T08:45:06;10.53;;;4.50;;
39740;SDS011;25426;53.478;10.190;2023-06-01T08:47:38;9.68;;;4.05;;
39740;SDS011;25426;53.478;10.190;2023-06-01T08:50:10;10.25;;;4.22;;
39740;SDS011;25426;53.478;10.190;2023-06-01T08:52:42;8.80;;;4.30;;
39740;SDS011;25426;53.478;10.190;2023-06-01T08:55:14;10.48;;;4.13;;
39740;SDS011;25426;53.478;10.190;2023-06-01T08:57:45;9.98;;;4.10;;
39740;SDS011;25426;53.478;10.190;2023-06-01T09:00:16;10.23;;;4.10;;
39740;SDS011;25426;53.478;10.190;2023-06-01T09:02:48;10.75;;;4.10;;
39740;SDS011;25426;53.478;10.190;2023-06-01T09:05:19;11.48;;;4.20;;
39740;SDS011;25426;53.478;10.190;2023-06-01T09:07:50;10.03;;;4.27;;
39740;SDS011;25426;53.478;10.190;2023-06-01T09:10:22;8.95;;;3.85;;
39740;SDS011;25426;53.478;10.190;2023-06-01T09:12:55;9.68;;;4.40;;
39740;SDS011;25426;53.478;10.190;2023-06-01T09:15:26;10.93;;;4.37;;
39740;SDS011;25426;53.478;10.190;2023-06-01T09:18:09;7.78;;;3.53;;
39740;SDS011;25426;53.478;10.190;2023-06-01T09:20:43;9.65;;;3.75;;
39740;SDS011;25426;53.478;10.190;2023-06-01T09:23:24;10.07;;;3.67;;
39740;SDS011;25426;53.478;10.190;2023-06-01T09:26:12;11.95;;;3.55;;
39740;SDS011;25426;53.478;10.190;2023-06-01T09:28:55;7.78;;;3.58;;
39740;SDS011;25426;53.478;10.190;2023-06-01T09:31:37;9.25;;;3.25;;
39740;SDS011;25426;53.478;10.190;2023-06-01T09:34:16;9.77;;;3.65;;
39740;SDS011;25426;53.478;10.190;2023-06-01T09:36:50;7.00;;;3.30;;
39740;SDS011;25426;53.478;10.190;2023-06-01T09:39:25;9.35;;;3.55;;
39740;SDS011;25426;53.478;10.190;2023-06-01T09:41:57;10.90;;;3.78;;
39740;SDS011;25426;53.478;10.190;2023-06-01T09:44:35;10.13;;;3.20;;
39740;SDS011;25426;53.478;10.190;2023-06-01T09:47:12;7.78;;;3.13;;
39740;SDS011;25426;53.478;10.190;2023-06-01T09:49:43;7.32;;;3.38;;
39740;SDS011;25426;53.478;10.190;2023-06-01T09:52:15;8.30;;;3.03;;
39740;SDS011;25426;53.478;10.190;2023-06-01T09:54:48;9.32;;;3.35;;
39740;SDS011;25426;53.478;10.190;2023-06-01T09:57:24;7.70;;;3.33;;
39740;SDS011;25426;53.478;10.190;2023-06-01T10:00:00;7.17;;;2.80;;
39740;SDS011;25426;53.478;10.190;2023-06-01T10:02:39;7.78;;;3.03;;
39740;SDS011;25426;53.478;10.190;2023-06-01T10:05:11;7.88;;;2.97;;
39740;SDS011;25426;53.478;10.190;2023-06-01T10:07:42;9.13;;;3.33;;
39740;SDS011;25426;53.478;10.190;2023-06-01T10:10:14;9.60;;;3.35;;
39740;SDS011;25426;53.478;10.190;2023-06-01T10:12:45;7.60;;;3.35;;
39740;SDS011;25426;53.478;10.190;2023-06-01T10:15:16;9.57;;;3.45;;
39740;SDS011;25426;53.478;10.190;2023-06-01T10:17:48;8.70;;;3.73;;
39740;SDS011;25426;53.478;10.190;2023-06-01T10:20:20;8.40;;;3.45;;
39740;SDS011;25426;53.478;10.190;2023-06-01T10:22:52;11.50;;;4.05;;
39740;SDS011;25426;53.478;10.190;2023-06-01T10:25:23;9.07;;;3.78;;
39740;SDS011;25426;53.478;10.190;2023-06-01T10:28:04;7.80;;;3.20;;
39740;SDS011;25426;53.478;10.190;2023-06-01T10:30:37;10.77;;;3.92;;
39740;SDS011;25426;53.478;10.190;2023-06-01T10:33:09;8.83;;;3.33;;
39740;SDS011;25426;53.478;10.190;2023-06-01T10:40:46;10.10;;;4.10;;
39740;SDS011;25426;53.478;10.190;2023-06-01T10:49:13;9.68;;;3.58;;
39740;SDS011;25426;53.478;10.190;2023-06-01T10:51:44;11.13;;;3.55;;
39740;SDS011;25426;53.478;10.190;2023-06-01T10:54:25;9.13;;;3.70;;
39740;SDS011;25426;53.478;10.190;2023-06-01T10:57:18;8.77;;;3.10;;
39740;SDS011;25426;53.478;10.190;2023-06-01T11:18:53;8.05;;;3.47;;
39740;SDS011;25426;53.478;10.190;2023-06-01T11:21:32;8.55;;;3.25;;
39740;SDS011;25426;53.478;10.190;2023-06-01T11:24:14;9.75;;;3.38;;
39740;SDS011;25426;53.478;10.190;2023-06-01T11:26:47;8.23;;;3.38;;
39740;SDS011;25426;53.478;10.190;2023-06-01T11:29:22;8.77;;;3.33;;
39740;SDS011;25426;53.478;10.190;2023-06-01T11:31:55;7.57;;;3.05;;
39740;SDS011;25426;53.478;10.190;2023-06-01T11:34:39;9.13;;;3.05;;
39740;SDS011;25426;53.478;10.190;2023-06-01T11:37:12;9.45;;;3.00;;
39740;SDS011;25426;53.478;10.190;2023-06-01T11:39:45;8.38;;;3.28;;
39740;SDS011;25426;53.478;10.190;2023-06-01T11:42:17;9.65;;;3.00;;
39740;SDS011;25426;53.478;10.190;2023-06-01T11:44:57;8.70;;;2.90;;
39740;SDS011;25426;53.478;10.190;2023-06-01T11:47:29;8.23;;;3.20;;
39740;SDS011;25426;53.478;10.190;2023-06-01T11:50:00;9.73;;;3.92;;
39740;SDS011;25426;53.478;10.190;2023-06-01T11:52:31;8.25;;;3.28;;
39740;SDS011;25426;53.478;10.190;2023-06-01T11:55:02;10.00;;;3.70;;
39740;SDS011;25426;53.478;10.190;2023-06-01T11:57:34;10.18;;;3.45;;
39740;SDS011;25426;53.478;10.190;2023-06-01T12:00:05;7.20;;;3.30;;
39740;SDS011;25426;53.478;10.190;2023-06-01T12:02:44;8.75;;;2.80;;
39740;SDS011;25426;53.478;10.190;2023-06-01T12:05:14;8.95;;;3.30;;
39740;SDS011;25426;53.478;10.190;2023-06-01T12:07:49;7.25;;;3.03;;
39740;SDS011;25426;53.478;10.190;2023-06-01T12:10:21;7.97;;;2.80;;
39740;SDS011;25426;53.478;10.190;2023-06-01T12:12:53;10.68;;;3.20;;
39740;SDS011;25426;53.478;10.190;2023-06-01T12:15:24;12.23;;;2.88;;
39740;SDS011;25426;53.478;10.190;2023-06-01T12:17:56;7.95;;;2.92;;
39740;SDS011;25426;53.478;10.190;2023-06-01T12:23:15;5.30;;;2.25;;
39740;SDS011;25426;53.478;10.190;2023-06-01T12:25:56;7.88;;;2.75;;
39740;SDS011;25426;53.478;10.190;2023-06-01T12:28:46;9.30;;;2.40;;
39740;SDS011;25426;53.478;10.190;2023-06-01T12:31:24;7.82;;;2.65;;
39740;SDS011;25426;53.478;10.190;2023-06-01T12:33:56;7.25;;;2.55;;
39740;SDS011;25426;53.478;10.190;2023-06-01T12:36:28;9.87;;;3.23;;
39740;SDS011;25426;53.478;10.190;2023-06-01T12:39:04;8.95;;;2.40;;
39740;SDS011;25426;53.478;10.190;2023-06-01T12:41:35;10.77;;;2.53;;
39740;SDS011;25426;53.478;10.190;2023-06-01T12:44:06;8.38;;;2.78;;
39740;SDS011;25426;53.478;10.190;2023-06-01T12:46:37;7.90;;;2.90;;
39740;SDS011;25426;53.478;10.190;2023-06-01T12:49:15;7.10;;;2.67;;
39740;SDS011;25426;53.478;10.190;2023-06-01T12:51:47;8.32;;;2.75;;
39740;SDS011;25426;53.478;10.190;2023-06-01T12:54:19;6.10;;;2.40;;
39740;SDS011;25426;53.478;10.190;2023-06-01T12:56:50;10.20;;;2.80;;
39740;SDS011;25426;53.478;10.190;2023-06-01T12:59:21;9.40;;;2.50;;
39740;SDS011;25426;53.478;10.190;2023-06-01T13:01:53;9.13;;;2.83;;
39740;SDS011;25426;53.478;10.190;2023-06-01T13:04:24;8.10;;;2.78;;
39740;SDS011;25426;53.478;10.190;2023-06-01T13:06:55;7.78;;;2.58;;
39740;SDS011;25426;53.478;10.190;2023-06-01T13:09:26;7.93;;;2.57;;
39740;SDS011;25426;53.478;10.190;2023-06-01T13:11:58;7.68;;;2.42;;
39740;SDS011;25426;53.478;10.190;2023-06-01T13:14:29;8.93;;;2.38;;
39740;SDS011;25426;53.478;10.190;2023-06-01T13:17:00;9.77;;;2.43;;
39740;SDS011;25426;53.478;10.190;2023-06-01T13:19:33;9.45;;;2.78;;
39740;SDS011;25426;53.478;10.190;2023-06-01T13:22:04;9.60;;;2.70;;
39740;SDS011;25426;53.478;10.190;2023-06-01T13:24:36;9.40;;;2.63;;
39740;SDS011;25426;53.478;10.190;2023-06-01T13:27:07;8.32;;;2.38;;
39740;SDS011;25426;53.478;10.190;2023-06-01T13:29:39;9.40;;;2.23;;
39740;SDS011;25426;53.478;10.190;2023-06-01T13:32:11;11.43;;;2.70;;
39740;SDS011;25426;53.478;10.190;2023-06-01T13:34:42;11.00;;;2.63;;
39740;SDS011;25426;53.478;10.190;2023-06-01T13:37:13;9.02;;;2.60;;
39740;SDS011;25426;53.478;10.190;2023-06-01T13:39:44;7.70;;;2.17;;
39740;SDS011;25426;53.478;10.190;2023-06-01T13:42:18;9.68;;;2.80;;
39740;SDS011;25426;53.478;10.190;2023-06-01T13:44:49;9.70;;;2.90;;
39740;SDS011;25426;53.478;10.190;2023-06-01T13:47:20;6.63;;;2.28;;
39740;SDS011;25426;53.478;10.190;2023-06-01T13:49:51;10.40;;;2.83;;
39740;SDS011;25426;53.478;10.190;2023-06-01T13:52:22;12.52;;;2.83;;
39740;SDS011;25426;53.478;10.190;2023-06-01T13:54:55;10.68;;;2.65;;
39740;SDS011;25426;53.478;10.190;2023-06-01T13:57:27;10.00;;;2.30;;
39740;SDS011;25426;53.478;10.190;2023-06-01T13:59:58;11.73;;;2.70;;
39740;SDS011;25426;53.478;10.190;2023-06-01T14:02:29;9.98;;;3.17;;
39740;SDS011;25426;53.478;10.190;2023-06-01T14:05:00;11.95;;;2.75;;
39740;SDS011;25426;53.478;10.190;2023-06-01T14:07:33;14.13;;;2.70;;
39740;SDS011;25426;53.478;10.190;2023-06-01T14:10:05;11.27;;;3.00;;
39740;SDS011;25426;53.478;10.190;2023-06-01T14:12:37;7.28;;;2.35;;
39740;SDS011;25426;53.478;10.190;2023-06-01T14:15:08;8.30;;;2.90;;
39740;SDS011;25426;53.478;10.190;2023-06-01T14:17:39;12.63;;;2.53;;
39740;SDS011;25426;53.478;10.190;2023-06-01T14:20:10;10.73;;;2.58;;
39740;SDS011;25426;53.478;10.190;2023-06-01T14:22:41;8.43;;;2.88;;
39740;SDS011;25426;53.478;10.190;2023-06-01T14:25:12;11.40;;;3.15;;
39740;SDS011;25426;53.478;10.190;2023-06-01T14:27:43;10.18;;;3.08;;
39740;SDS011;25426;53.478;10.190;2023-06-01T14:30:14;11.27;;;2.60;;
39740;SDS011;25426;53.478;10.190;2023-06-01T14:32:45;11.43;;;2.67;;
39740;SDS011;25426;53.478;10.190;2023-06-01T14:35:16;14.10;;;3.30;;
39740;SDS011;25426;53.478;10.190;2023-06-01T14:37:48;10.13;;;2.75;;
39740;SDS011;25426;53.478;10.190;2023-06-01T14:40:19;11.13;;;3.17;;
39740;SDS011;25426;53.478;10.190;2023-06-01T14:42:50;11.60;;;3.40;;
39740;SDS011;25426;53.478;10.190;2023-06-01T14:45:21;11.63;;;3.05;;
39740;SDS011;25426;53.478;10.190;2023-06-01T14:47:53;9.35;;;3.17;;
39740;SDS011;25426;53.478;10.190;2023-06-01T14:50:24;12.65;;;2.95;;
39740;SDS011;25426;53.478;10.190;2023-06-01T14:52:55;11.98;;;3.15;;
39740;SDS011;25426;53.478;10.190;2023-06-01T14:55:29;12.83;;;2.93;;
39740;SDS011;25426;53.478;10.190;2023-06-01T14:58:00;11.48;;;2.67;;
39740;SDS011;25426;53.478;10.190;2023-06-01T15:00:32;14.02;;;3.25;;
39740;SDS011;25426;53.478;10.190;2023-06-01T15:03:03;12.45;;;3.33;;
39740;SDS011;25426;53.478;10.190;2023-06-01T15:05:35;13.20;;;3.22;;
39740;SDS011;25426;53.478;10.190;2023-06-01T15:08:06;10.50;;;2.70;;
39740;SDS011;25426;53.478;10.190;2023-06-01T15:10:37;13.07;;;3.47;;
39740;SDS011;25426;53.478;10.190;2023-06-01T15:13:08;10.70;;;2.92;;
39740;SDS011;25426;53.478;10.190;2023-06-01T15:15:39;12.48;;;3.40;;
39740;SDS011;25426;53.478;10.190;2023-06-01T15:18:11;14.50;;;3.05;;
39740;SDS011;25426;53.478;10.190;2023-06-01T15:20:42;14.07;;;3.03;;
39740;SDS011;25426;53.478;10.190;2023-06-01T15:23:13;10.77;;;3.20;;
39740;SDS011;25426;53.478;10.190;2023-06-01T15:25:44;13.63;;;3.15;;
39740;SDS011;25426;53.478;10.190;2023-06-01T15:28:15;13.18;;;3.55;;
39740;SDS011;25426;53.478;10.190;2023-06-01T15:30:46;14.40;;;3.40;;
39740;SDS011;25426;53.478;10.190;2023-06-01T15:33:17;16.05;;;3.67;;
39740;SDS011;25426;53.478;10.190;2023-06-01T15:35:48;15.40;;;3.35;;